• Join FlightAware (Why Join?)
  • Login
  • US Flag 
06:42AM EST


 

Airport Tracker/Info


-or-


 

Live Flight TrackerFlight Track Log ✈ AAL1554 ✈ 13-Jun-2013 ✈ KSNA - KDFW

Flight Track Log - Related Links

Times and Time Zones

All times are in EDT time to prevent confusion due to time zone crossing. See the AAL1554 flight status page for this flight to view local times or setup timezone preferences in your user account.

Time Position Orientation Groundspeed Altitude Reporting Facility
EDT Latitude Longitude Course Direction KTS MPH feet Rate Location/Type
04:28PM 33.6333 -117.8833 90° East 175 201 1,900  Level Southern California TRACON
04:29PM 33.5708 -117.8950 189° South 230 265 3,800 2,040 Climbing Los Angeles Center
04:30PM 33.4843 -117.6540 54° Northeast  Level FlightAware Approximate
04:30PM 33.5378 -117.8219 118° Southeast 282 325 6,400  Level Los Angeles Center
04:31PM 33.5430 -117.5299 66° East  Level FlightAware Approximate
04:32PM 33.5833 -117.3963 90° East  Level FlightAware Approximate
04:32PM 33.5539 -117.7039 81° East 300 345 9,900  Level Los Angeles Center
04:33PM 33.5834 -117.2528 90° East  Level FlightAware Approximate
04:33PM 33.5689 -117.5936 81° East 332 382 11,100  Level Los Angeles Center
04:34PM 33.5844 -117.4692 81° East 372 428 13,700 2,040 Climbing Los Angeles Center
04:35PM 33.5889 -117.3381 88° East 392 451 15,400 1,860 Climbing Los Angeles Center
04:36PM 33.5928 -117.2044 88° East 403 464 17,600 1,740 Climbing Los Angeles Center
04:37PM 33.5994 -117.0356 87° East 421 484 19,100 1,080 Climbing Los Angeles Center
04:38PM 33.5881 -116.9144 96° East 429 494 19,900 1,200 Climbing Los Angeles Center
04:39PM 33.5767 -116.7422 94° East 432 497 21,600 1,680 Climbing Los Angeles Center
04:40PM 33.5661 -116.5969 95° East 437 503 23,400 1,620 Climbing Los Angeles Center
04:41PM 33.5625 -116.4425 92° East 461 531 25,000 1,500 Climbing Los Angeles Center
04:43PM 33.6025 -116.1242 81° East 486 559 28,100 1,320 Climbing Los Angeles Center
04:44PM 33.6214 -115.9594 82° East 496 571 29,200 1,380 Climbing Los Angeles Center
04:45PM 33.6464 -115.7606 81° East 502 578 31,000 1,620 Climbing Los Angeles Center
04:46PM 33.6656 -115.5936 82° East 502 578 32,600 1,500 Climbing Los Angeles Center
04:47PM 33.6844 -115.4300 82° East 497 572 34,100 1,320 Climbing Los Angeles Center
04:48PM 33.7028 -115.2681 82° East 491 565 35,400 960 Climbing Los Angeles Center
04:49PM 33.7217 -115.1053 82° East 493 567 36,200 720 Climbing Los Angeles Center
04:50PM 33.7408 -114.9408 82° East 496 571 36,900 300 Climbing Los Angeles Center
04:51PM 33.7644 -114.7442 82° East 500 575 37,000  Climbing Los Angeles Center
04:53PM 33.7850 -114.5486 83° East 495 570 36,900 -60 Descending Los Angeles Center
04:54PM 33.8042 -114.3539 83° East 492 566 36,900  Level Los Angeles Center
04:55PM 33.8214 -114.1931 83° East 488 562 36,900  Level Los Angeles Center
04:56PM 33.8400 -114.0497 81° East 484 557 37,000  Climbing Albuquerque Center
04:57PM 33.8547 -113.8903 84° East 483 556 37,000  Level Albuquerque Center
04:58PM 33.8708 -113.7300 83° East 483 556 37,000  Level Albuquerque Center
04:59PM 33.8872 -113.5706 83° East 482 555 37,000  Level Albuquerque Center
05:00PM 33.9033 -113.4103 83° East 483 556 37,000  Level Albuquerque Center
05:01PM 33.9228 -113.2186 83° East 482 555 37,000  Level Albuquerque Center
05:02PM 33.9375 -113.0592 84° East 480 552 37,000  Level Albuquerque Center
05:03PM 33.9522 -112.8992 84° East 481 554 37,000  Level Albuquerque Center
05:05PM 33.9828 -112.5794 83° East 481 554 37,000  Level Albuquerque Center
05:06PM 33.9975 -112.4194 84° East 481 554 37,000  Level Albuquerque Center
05:07PM 34.0122 -112.2606 84° East 478 550 37,000  Level Albuquerque Center
05:08PM 34.0294 -112.0703 84° East 476 548 37,000  Level Albuquerque Center
05:09PM 34.0436 -111.9083 84° East 475 547 37,000  Level Albuquerque Center
05:10PM 34.0564 -111.7517 84° East 472 543 37,000  Level Albuquerque Center
05:11PM 34.0708 -111.5889 84° East 468 539 37,000  Level Albuquerque Center
05:12PM 34.0836 -111.4347 84° East 463 533 37,000  Level Albuquerque Center
05:13PM 34.0967 -111.2808 84° East 461 531 37,000  Level Albuquerque Center
05:14PM 34.1092 -111.1267 84° East 463 533 37,000  Level Albuquerque Center
05:15PM 34.1211 -110.9744 85° East 458 527 37,000  Level Albuquerque Center
05:16PM 34.1339 -110.8206 84° East 460 529 37,000  Level Albuquerque Center
05:17PM 34.1447 -110.6642 85° East 461 531 37,000  Level Albuquerque Center
05:18PM 34.1567 -110.5114 85° East 460 529 37,000  Level Albuquerque Center
05:19PM 34.1700 -110.3278 85° East 461 531 37,000  Level Albuquerque Center
05:20PM 34.1817 -110.1739 85° East 462 532 37,000  Level Albuquerque Center
05:21PM 34.1942 -110.0086 85° East 464 534 37,000  Level Albuquerque Center
05:22PM 34.2050 -109.8569 85° East 471 542 37,000  Level Albuquerque Center
05:23PM 34.2175 -109.6803 85° East 473 544 37,000  Level Albuquerque Center
05:24PM 34.2275 -109.5264 85° East 477 549 37,000  Level Albuquerque Center
05:25PM 34.2392 -109.3578 85° East 473 544 37,000  Level Albuquerque Center
05:26PM 34.2497 -109.1997 85° East 472 543 37,000  Level Albuquerque Center
05:27PM 34.2594 -109.0436 86° East 471 542 37,000 120 Level Albuquerque Center
05:28PM 34.2694 -108.8875 86° East 469 540 37,300 540 Climbing Albuquerque Center
05:30PM 34.2794 -108.7319 86° East 468 539 38,200 720 Climbing Albuquerque Center
05:31PM 34.2903 -108.5464 86° East 466 536 38,900 360 Climbing Albuquerque Center
05:32PM 34.2989 -108.3894 86° East 468 539 39,000  Climbing Albuquerque Center
05:33PM 34.3078 -108.2481 86° East 463 533 39,000  Level Albuquerque Center
05:34PM 34.3161 -108.0947 86° East 459 528 39,000  Level Albuquerque Center
05:35PM 34.3261 -107.9103 86° East 459 528 39,000  Level Albuquerque Center
05:36PM 34.3344 -107.7564 86° East 460 529 39,000  Level Albuquerque Center
05:37PM 34.3419 -107.6025 87° East 461 531 39,000  Level Albuquerque Center
05:38PM 34.3503 -107.4472 86° East 462 532 39,000  Level Albuquerque Center
05:39PM 34.3569 -107.2911 87° East 465 535 39,000  Level Albuquerque Center
05:40PM 34.3644 -107.1367 87° East 464 534 39,000  Level Albuquerque Center
05:41PM 34.3725 -106.9486 87° East 469 540 39,000  Level Albuquerque Center
05:42PM 34.3800 -106.7919 87° East 469 540 39,000  Level Albuquerque Center
05:43PM 34.3864 -106.6350 87° East 469 540 39,000  Level Albuquerque Center
05:44PM 34.3933 -106.4778 87° East 470 541 39,000  Level Albuquerque Center
05:45PM 34.4006 -106.3197 87° East 472 543 39,000  Level Albuquerque Center
05:46PM 34.4069 -106.1344 88° East 463 533 39,000  Level Albuquerque Center
05:47PM 34.4136 -105.9764 87° East 465 535 39,000  Level Albuquerque Center
05:48PM 34.4186 -105.8192 88° East 464 534 39,000  Level Albuquerque Center
05:49PM 34.4239 -105.6631 88° East 463 533 39,000  Level Albuquerque Center
05:50PM 34.4303 -105.5061 87° East 464 534 39,000  Level Albuquerque Center
05:51PM 34.4350 -105.3486 88° East 464 534 39,000  Level Albuquerque Center
05:52PM 34.4408 -105.1919 87° East 464 534 39,000  Level Albuquerque Center
05:53PM 34.4467 -105.0353 87° East 464 534 39,000  Level Albuquerque Center
05:54PM 34.4522 -104.8531 88° East 462 532 39,000  Level Albuquerque Center
05:55PM 34.4567 -104.6939 88° East 467 537 39,000  Level Albuquerque Center
05:56PM 34.4608 -104.5331 88° East 472 543 39,000  Level Albuquerque Center
05:57PM 34.4653 -104.3722 88° East 475 547 39,000  Level Albuquerque Center
05:58PM 34.4692 -104.2111 88° East 476 548 39,000  Level Albuquerque Center
05:59PM 34.4728 -104.0494 88° East 478 550 39,000  Level Albuquerque Center
06:00PM 34.4772 -103.8611 88° East 478 550 39,000  Level Albuquerque Center
06:01PM 34.4817 -103.6994 88° East 478 550 39,000  Level Albuquerque Center
06:02PM 34.4844 -103.5392 89° East 476 548 39,000  Level Albuquerque Center
06:04PM 34.4869 -103.3792 89° East 474 545 39,000  Level Albuquerque Center
06:05PM 34.4889 -103.2222 89° East 468 539 39,000  Level Albuquerque Center
06:06PM 34.4914 -103.0619 89° East 471 542 39,000  Level Albuquerque Center
06:07PM 34.4933 -102.8953 89° East 470 541 39,000  Level Albuquerque Center
06:08PM 34.4850 -102.7378 94° East 472 543 39,000  Level Albuquerque Center
06:09PM 34.4689 -102.5831 97° East 467 537 39,000  Level Albuquerque Center
06:10PM 34.4528 -102.4269 97° East 468 539 39,000  Level Albuquerque Center
06:11PM 34.4325 -102.2417 98° East 467 537 39,000  Level Albuquerque Center
06:12PM 34.4161 -102.0867 97° East 466 536 39,000  Level Albuquerque Center
06:13PM 34.3992 -101.9342 98° East 464 534 39,000  Level Albuquerque Center
06:14PM 34.3831 -101.7817 97° East 461 531 39,000  Level Albuquerque Center
06:15PM 34.3650 -101.6278 98° East 463 533 39,000  Level Albuquerque Center
06:16PM 34.3453 -101.4464 97° East 459 528 39,000  Level Albuquerque Center
06:17PM 34.3292 -101.2967 97° East 455 524 39,000  Level Albuquerque Center
06:18PM 34.3117 -101.1447 98° East 457 526 39,000  Level Fort Worth Center
06:19PM 34.2889 -100.9928 100° East 457 526 39,000  Level Fort Worth Center
06:20PM 34.2575 -100.8458 104° East 452 520 39,000  Level Fort Worth Center
06:21PM 34.2261 -100.6989 104° East 452 520 39,000  Level Fort Worth Center
06:22PM 34.1922 -100.5519 106° East 452 520 39,000  Level Fort Worth Center
06:23PM 34.1583 -100.4053 106° East 457 526 39,000  Level Fort Worth Center
06:24PM 34.1264 -100.2586 105° East 457 526 39,000  Level Fort Worth Center
06:25PM 34.0900 -100.1119 107° East 457 526 39,000  Level Fort Worth Center
06:26PM 34.0575 -99.9681 105° East 457 526 39,000  Level Fort Worth Center
06:27PM 34.0250 -99.8192 105° East 457 526 39,000  Level Fort Worth Center
06:28PM 33.9881 -99.6731 107° East 462 532 39,000  Level Fort Worth Center
06:29PM 33.9608 -99.5544 105° East 462 532 39,000 -120 Level Fort Worth Center
06:30PM 33.9239 -99.3983 106° East 452 520 38,800 -1,320 Descending Fort Worth Center
06:31PM 33.8906 -99.2575 106° East 446 513 36,400 -2,700 Descending Fort Worth Center
06:32PM 33.8550 -99.1117 106° East 445 512 33,500 -2,760 Descending Fort Worth Center
06:33PM 33.8172 -98.9711 108° East 445 512 30,900 -2,340 Descending Fort Worth Center
06:34PM 33.7750 -98.8328 110° East 437 503 28,900 -2,040 Descending Fort Worth Center
06:35PM 33.7325 -98.6972 111° Southeast 437 503 26,900 -2,040 Descending Fort Worth Center
06:36PM 33.6900 -98.5692 112° Southeast 423 487 24,900 -2,160 Descending Fort Worth Center
06:37PM 33.6411 -98.4314 113° Southeast 410 472 22,600 -2,100 Descending Fort Worth Center
06:38PM 33.6086 -98.3214 110° East 399 459 20,700 -1,920 Descending Fort Worth Center
06:39PM 33.5697 -98.2039 112° Southeast 389 448 18,800 -2,100 Descending Fort Worth Center
06:40PM 33.5267 -98.0789 112° Southeast 372 428 16,600 -2,040 Descending Fort Worth Center
06:41PM 33.4939 -97.9789 111° Southeast 367 422 14,800 -1,980 Descending Fort Worth Center
06:42PM 33.4547 -97.8592 111° Southeast 356 410 12,700 -1,800 Descending Fort Worth Center
06:43PM 33.4236 -97.7669 112° Southeast 344 396 11,300 -1,260 Descending Fort Worth Center
06:44PM 33.3883 -97.6647 112° Southeast 322 371 10,300 -1,200 Descending Fort Worth Center
06:45PM 33.3406 -97.5925 128° Southeast 285 328 8,900 -1,500 Descending Fort Worth Center
06:46PM 33.2906 -97.5353 136° Southeast 273 314 7,400 -1,500 Descending Fort Worth Center
06:47PM 33.2550 -97.4458 115° Southeast 273 314 5,900 -1,200 Descending Fort Worth Center
06:48PM 33.2300 -97.3711 112° Southeast 268 308 5,000 -480 Descending Fort Worth Center
06:49PM 33.2050 -97.2819 109° East 263 303 5,000  Level Fort Worth Center
06:50PM 33.1861 -97.2100 107° East 263 303 5,000 -420 Level Fort Worth Center
06:51PM 33.1525 -97.1381 119° Southeast 234 269 4,200 -960 Descending Fort Worth Center
06:52PM 33.1128 -97.0936 137° Southeast 222 255 3,100 -1,140 Descending Fort Worth Center